sensor_id;sensor_type;location;lat;lon;timestamp;P1;durP1;ratioP1;P2;durP2;ratioP2
69325;SDS011;56471;53.508;49.252;2023-04-25T00:02:05;7.75;;;3.08;;
69325;SDS011;56471;53.508;49.252;2023-04-25T00:04:32;8.25;;;3.08;;
69325;SDS011;56471;53.508;49.252;2023-04-25T00:06:58;8.18;;;3.08;;
69325;SDS011;56471;53.508;49.252;2023-04-25T00:09:27;8.05;;;3.13;;
69325;SDS011;56471;53.508;49.252;2023-04-25T00:11:53;11.93;;;3.17;;
69325;SDS011;56471;53.508;49.252;2023-04-25T00:14:18;9.57;;;2.90;;
69325;SDS011;56471;53.508;49.252;2023-04-25T00:16:44;4.88;;;2.83;;
69325;SDS011;56471;53.508;49.252;2023-04-25T00:19:09;6.78;;;3.00;;
69325;SDS011;56471;53.508;49.252;2023-04-25T00:21:35;7.75;;;3.10;;
69325;SDS011;56471;53.508;49.252;2023-04-25T00:24:05;9.20;;;3.08;;
69325;SDS011;56471;53.508;49.252;2023-04-25T00:26:34;8.15;;;3.20;;
69325;SDS011;56471;53.508;49.252;2023-04-25T00:29:00;7.10;;;3.20;;
69325;SDS011;56471;53.508;49.252;2023-04-25T00:31:26;5.65;;;3.08;;
69325;SDS011;56471;53.508;49.252;2023-04-25T00:33:52;9.25;;;3.30;;
69325;SDS011;56471;53.508;49.252;2023-04-25T00:36:18;7.20;;;3.15;;
69325;SDS011;56471;53.508;49.252;2023-04-25T00:38:44;8.07;;;3.22;;
69325;SDS011;56471;53.508;49.252;2023-04-25T00:41:09;7.18;;;3.38;;
69325;SDS011;56471;53.508;49.252;2023-04-25T00:43:36;7.43;;;3.17;;
69325;SDS011;56471;53.508;49.252;2023-04-25T00:46:02;5.65;;;3.40;;
69325;SDS011;56471;53.508;49.252;2023-04-25T00:48:28;12.00;;;3.63;;
69325;SDS011;56471;53.508;49.252;2023-04-25T00:50:55;6.25;;;3.58;;
69325;SDS011;56471;53.508;49.252;2023-04-25T00:53:23;5.85;;;3.28;;
69325;SDS011;56471;53.508;49.252;2023-04-25T00:55:51;9.27;;;3.85;;
69325;SDS011;56471;53.508;49.252;2023-04-25T00:58:17;8.07;;;3.50;;
69325;SDS011;56471;53.508;49.252;2023-04-25T01:00:45;6.80;;;3.80;;
69325;SDS011;56471;53.508;49.252;2023-04-25T01:03:12;7.95;;;3.72;;
69325;SDS011;56471;53.508;49.252;2023-04-25T01:05:45;10.15;;;3.83;;
69325;SDS011;56471;53.508;49.252;2023-04-25T01:08:12;8.23;;;4.10;;
69325;SDS011;56471;53.508;49.252;2023-04-25T01:10:38;7.55;;;3.78;;
69325;SDS011;56471;53.508;49.252;2023-04-25T01:13:04;6.47;;;3.85;;
69325;SDS011;56471;53.508;49.252;2023-04-25T01:15:32;7.78;;;3.30;;
69325;SDS011;56471;53.508;49.252;2023-04-25T01:17:58;7.85;;;3.45;;
69325;SDS011;56471;53.508;49.252;2023-04-25T01:20:26;5.57;;;3.35;;
69325;SDS011;56471;53.508;49.252;2023-04-25T01:22:53;8.07;;;3.50;;
69325;SDS011;56471;53.508;49.252;2023-04-25T01:25:20;9.55;;;3.70;;
69325;SDS011;56471;53.508;49.252;2023-04-25T01:27:47;8.98;;;3.78;;
69325;SDS011;56471;53.508;49.252;2023-04-25T01:30:13;6.40;;;3.60;;
69325;SDS011;56471;53.508;49.252;2023-04-25T01:32:39;4.57;;;3.40;;
69325;SDS011;56471;53.508;49.252;2023-04-25T01:35:10;10.68;;;3.70;;
69325;SDS011;56471;53.508;49.252;2023-04-25T01:37:37;7.95;;;3.65;;
69325;SDS011;56471;53.508;49.252;2023-04-25T01:40:03;7.38;;;3.40;;
69325;SDS011;56471;53.508;49.252;2023-04-25T01:42:31;7.45;;;3.58;;
69325;SDS011;56471;53.508;49.252;2023-04-25T01:44:57;10.18;;;3.47;;
69325;SDS011;56471;53.508;49.252;2023-04-25T01:47:23;6.32;;;3.50;;
69325;SDS011;56471;53.508;49.252;2023-04-25T01:49:48;5.00;;;3.10;;
69325;SDS011;56471;53.508;49.252;2023-04-25T01:52:14;7.22;;;3.50;;
69325;SDS011;56471;53.508;49.252;2023-04-25T01:54:40;5.95;;;3.03;;
69325;SDS011;56471;53.508;49.252;2023-04-25T01:57:09;7.25;;;3.03;;
69325;SDS011;56471;53.508;49.252;2023-04-25T01:59:38;8.85;;;3.13;;
69325;SDS011;56471;53.508;49.252;2023-04-25T02:02:04;8.07;;;2.97;;
69325;SDS011;56471;53.508;49.252;2023-04-25T02:04:30;6.35;;;2.85;;
69325;SDS011;56471;53.508;49.252;2023-04-25T02:06:55;6.80;;;3.10;;
69325;SDS011;56471;53.508;49.252;2023-04-25T02:09:21;4.63;;;2.83;;
69325;SDS011;56471;53.508;49.252;2023-04-25T02:11:47;5.55;;;3.08;;
69325;SDS011;56471;53.508;49.252;2023-04-25T02:14:13;6.03;;;2.67;;
69325;SDS011;56471;53.508;49.252;2023-04-25T02:16:39;5.82;;;2.95;;
69325;SDS011;56471;53.508;49.252;2023-04-25T02:19:04;5.93;;;3.03;;
69325;SDS011;56471;53.508;49.252;2023-04-25T02:21:31;6.72;;;3.03;;
69325;SDS011;56471;53.508;49.252;2023-04-25T02:23:57;9.07;;;3.20;;
69325;SDS011;56471;53.508;49.252;2023-04-25T02:26:23;5.60;;;3.00;;
69325;SDS011;56471;53.508;49.252;2023-04-25T02:28:49;5.30;;;2.72;;
69325;SDS011;56471;53.508;49.252;2023-04-25T02:31:16;7.15;;;3.17;;
69325;SDS011;56471;53.508;49.252;2023-04-25T02:33:42;6.30;;;3.00;;
69325;SDS011;56471;53.508;49.252;2023-04-25T02:36:08;4.10;;;2.90;;
69325;SDS011;56471;53.508;49.252;2023-04-25T02:38:34;6.80;;;3.20;;
69325;SDS011;56471;53.508;49.252;2023-04-25T02:40:59;5.70;;;3.20;;
69325;SDS011;56471;53.508;49.252;2023-04-25T02:43:25;4.32;;;2.60;;
69325;SDS011;56471;53.508;49.252;2023-04-25T02:45:51;8.57;;;3.30;;
69325;SDS011;56471;53.508;49.252;2023-04-25T02:48:16;7.25;;;3.00;;
69325;SDS011;56471;53.508;49.252;2023-04-25T02:50:42;5.75;;;3.10;;
69325;SDS011;56471;53.508;49.252;2023-04-25T02:53:08;5.28;;;2.85;;
69325;SDS011;56471;53.508;49.252;2023-04-25T02:55:34;5.15;;;3.00;;
69325;SDS011;56471;53.508;49.252;2023-04-25T02:57:59;7.65;;;3.13;;
69325;SDS011;56471;53.508;49.252;2023-04-25T03:00:25;7.30;;;3.03;;
69325;SDS011;56471;53.508;49.252;2023-04-25T03:02:51;5.85;;;2.88;;
69325;SDS011;56471;53.508;49.252;2023-04-25T03:05:16;6.68;;;2.80;;
69325;SDS011;56471;53.508;49.252;2023-04-25T03:07:43;7.38;;;3.10;;
69325;SDS011;56471;53.508;49.252;2023-04-25T03:10:09;9.32;;;3.10;;
69325;SDS011;56471;53.508;49.252;2023-04-25T03:12:36;7.15;;;3.20;;
69325;SDS011;56471;53.508;49.252;2023-04-25T03:15:02;8.13;;;3.38;;
69325;SDS011;56471;53.508;49.252;2023-04-25T03:17:28;6.47;;;2.78;;
69325;SDS011;56471;53.508;49.252;2023-04-25T03:19:54;6.53;;;2.90;;
69325;SDS011;56471;53.508;49.252;2023-04-25T03:22:20;5.50;;;3.22;;
69325;SDS011;56471;53.508;49.252;2023-04-25T03:24:47;6.35;;;2.80;;
69325;SDS011;56471;53.508;49.252;2023-04-25T03:27:12;6.28;;;2.92;;
69325;SDS011;56471;53.508;49.252;2023-04-25T03:29:38;9.05;;;3.30;;
69325;SDS011;56471;53.508;49.252;2023-04-25T03:32:05;5.85;;;3.20;;
69325;SDS011;56471;53.508;49.252;2023-04-25T03:34:31;6.25;;;3.47;;
69325;SDS011;56471;53.508;49.252;2023-04-25T03:36:56;5.40;;;2.92;;
69325;SDS011;56471;53.508;49.252;2023-04-25T03:39:22;9.00;;;3.03;;
69325;SDS011;56471;53.508;49.252;2023-04-25T03:41:48;6.45;;;3.10;;
69325;SDS011;56471;53.508;49.252;2023-04-25T03:44:13;6.50;;;3.00;;
69325;SDS011;56471;53.508;49.252;2023-04-25T03:46:39;8.07;;;2.97;;
69325;SDS011;56471;53.508;49.252;2023-04-25T03:49:05;9.23;;;3.00;;
69325;SDS011;56471;53.508;49.252;2023-04-25T03:51:31;7.38;;;3.05;;
69325;SDS011;56471;53.508;49.252;2023-04-25T03:53:56;4.57;;;2.97;;
69325;SDS011;56471;53.508;49.252;2023-04-25T03:56:22;6.80;;;3.13;;
69325;SDS011;56471;53.508;49.252;2023-04-25T03:58:48;8.43;;;3.30;;
69325;SDS011;56471;53.508;49.252;2023-04-25T04:01:13;9.52;;;3.42;;
69325;SDS011;56471;53.508;49.252;2023-04-25T04:03:39;9.07;;;3.10;;
69325;SDS011;56471;53.508;49.252;2023-04-25T04:06:05;7.28;;;3.30;;
69325;SDS011;56471;53.508;49.252;2023-04-25T04:08:32;9.18;;;3.38;;
69325;SDS011;56471;53.508;49.252;2023-04-25T04:10:58;3.92;;;2.70;;
69325;SDS011;56471;53.508;49.252;2023-04-25T04:13:27;8.55;;;3.30;;
69325;SDS011;56471;53.508;49.252;2023-04-25T04:15:58;6.97;;;3.22;;
69325;SDS011;56471;53.508;49.252;2023-04-25T04:18:24;4.75;;;3.10;;
69325;SDS011;56471;53.508;49.252;2023-04-25T04:20:52;5.97;;;2.97;;
69325;SDS011;56471;53.508;49.252;2023-04-25T04:23:18;9.35;;;3.50;;
69325;SDS011;56471;53.508;49.252;2023-04-25T04:25:45;7.28;;;3.45;;
69325;SDS011;56471;53.508;49.252;2023-04-25T04:28:11;9.82;;;3.63;;
69325;SDS011;56471;53.508;49.252;2023-04-25T04:30:38;7.07;;;3.40;;
69325;SDS011;56471;53.508;49.252;2023-04-25T04:33:04;6.47;;;3.88;;
69325;SDS011;56471;53.508;49.252;2023-04-25T04:35:30;9.57;;;3.60;;
69325;SDS011;56471;53.508;49.252;2023-04-25T04:37:56;7.25;;;3.67;;
69325;SDS011;56471;53.508;49.252;2023-04-25T04:40:22;8.68;;;3.95;;
69325;SDS011;56471;53.508;49.252;2023-04-25T04:42:47;8.07;;;3.35;;
69325;SDS011;56471;53.508;49.252;2023-04-25T04:45:14;7.28;;;3.10;;
69325;SDS011;56471;53.508;49.252;2023-04-25T04:47:41;6.20;;;3.00;;
69325;SDS011;56471;53.508;49.252;2023-04-25T04:50:07;11.85;;;3.50;;
69325;SDS011;56471;53.508;49.252;2023-04-25T04:52:37;7.55;;;3.13;;
69325;SDS011;56471;53.508;49.252;2023-04-25T04:55:03;6.30;;;3.30;;
69325;SDS011;56471;53.508;49.252;2023-04-25T04:57:30;5.97;;;3.35;;
69325;SDS011;56471;53.508;49.252;2023-04-25T04:59:58;8.27;;;3.15;;
69325;SDS011;56471;53.508;49.252;2023-04-25T05:02:24;6.40;;;3.05;;
69325;SDS011;56471;53.508;49.252;2023-04-25T05:04:50;11.52;;;3.67;;
69325;SDS011;56471;53.508;49.252;2023-04-25T05:07:16;9.35;;;3.67;;
69325;SDS011;56471;53.508;49.252;2023-04-25T05:09:43;7.93;;;3.10;;
69325;SDS011;56471;53.508;49.252;2023-04-25T05:12:08;6.63;;;3.55;;
69325;SDS011;56471;53.508;49.252;2023-04-25T05:14:34;6.85;;;3.45;;
69325;SDS011;56471;53.508;49.252;2023-04-25T05:17:00;6.45;;;2.97;;
69325;SDS011;56471;53.508;49.252;2023-04-25T05:19:25;9.85;;;3.40;;
69325;SDS011;56471;53.508;49.252;2023-04-25T05:21:51;5.88;;;3.30;;
69325;SDS011;56471;53.508;49.252;2023-04-25T05:24:17;5.82;;;3.38;;
69325;SDS011;56471;53.508;49.252;2023-04-25T05:26:43;6.72;;;3.45;;
69325;SDS011;56471;53.508;49.252;2023-04-25T05:29:09;8.60;;;3.47;;
69325;SDS011;56471;53.508;49.252;2023-04-25T05:31:35;8.25;;;3.50;;
69325;SDS011;56471;53.508;49.252;2023-04-25T05:34:01;6.43;;;3.20;;
69325;SDS011;56471;53.508;49.252;2023-04-25T05:36:27;12.02;;;3.13;;
69325;SDS011;56471;53.508;49.252;2023-04-25T05:38:52;7.10;;;3.47;;
69325;SDS011;56471;53.508;49.252;2023-04-25T05:41:18;10.30;;;3.50;;
69325;SDS011;56471;53.508;49.252;2023-04-25T05:43:44;8.23;;;3.13;;
69325;SDS011;56471;53.508;49.252;2023-04-25T05:46:12;10.25;;;3.40;;
69325;SDS011;56471;53.508;49.252;2023-04-25T05:48:38;6.53;;;3.05;;
69325;SDS011;56471;53.508;49.252;2023-04-25T05:51:04;5.45;;;3.00;;
69325;SDS011;56471;53.508;49.252;2023-04-25T05:53:30;8.63;;;2.90;;
69325;SDS011;56471;53.508;49.252;2023-04-25T05:55:56;6.47;;;2.80;;
69325;SDS011;56471;53.508;49.252;2023-04-25T05:58:22;8.75;;;2.78;;
69325;SDS011;56471;53.508;49.252;2023-04-25T06:00:47;6.88;;;3.20;;
69325;SDS011;56471;53.508;49.252;2023-04-25T06:03:13;8.07;;;2.90;;
69325;SDS011;56471;53.508;49.252;2023-04-25T06:05:42;7.78;;;3.22;;
69325;SDS011;56471;53.508;49.252;2023-04-25T06:08:08;7.38;;;2.70;;
69325;SDS011;56471;53.508;49.252;2023-04-25T06:10:35;6.70;;;2.92;;
69325;SDS011;56471;53.508;49.252;2023-04-25T06:13:01;5.25;;;2.92;;
69325;SDS011;56471;53.508;49.252;2023-04-25T06:15:27;8.15;;;2.90;;
69325;SDS011;56471;53.508;49.252;2023-04-25T06:17:53;5.55;;;2.90;;
69325;SDS011;56471;53.508;49.252;2023-04-25T06:20:19;6.40;;;2.58;;
69325;SDS011;56471;53.508;49.252;2023-04-25T06:22:48;8.32;;;2.97;;
69325;SDS011;56471;53.508;49.252;2023-04-25T06:25:14;4.70;;;2.70;;
69325;SDS011;56471;53.508;49.252;2023-04-25T06:27:40;8.20;;;2.92;;
69325;SDS011;56471;53.508;49.252;2023-04-25T06:30:06;5.65;;;2.90;;
69325;SDS011;56471;53.508;49.252;2023-04-25T06:32:32;6.40;;;2.70;;
69325;SDS011;56471;53.508;49.252;2023-04-25T06:34:59;8.75;;;2.95;;
69325;SDS011;56471;53.508;49.252;2023-04-25T06:37:25;6.18;;;2.70;;
69325;SDS011;56471;53.508;49.252;2023-04-25T06:39:51;5.05;;;2.67;;
69325;SDS011;56471;53.508;49.252;2023-04-25T06:42:17;3.63;;;2.63;;
69325;SDS011;56471;53.508;49.252;2023-04-25T06:44:42;5.72;;;2.67;;
69325;SDS011;56471;53.508;49.252;2023-04-25T06:47:08;8.40;;;2.80;;
69325;SDS011;56471;53.508;49.252;2023-04-25T06:49:34;6.65;;;2.70;;
69325;SDS011;56471;53.508;49.252;2023-04-25T06:52:00;4.15;;;2.70;;
69325;SDS011;56471;53.508;49.252;2023-04-25T06:54:25;5.22;;;2.80;;
69325;SDS011;56471;53.508;49.252;2023-04-25T06:56:53;6.20;;;3.20;;
69325;SDS011;56471;53.508;49.252;2023-04-25T06:59:19;5.88;;;2.95;;
69325;SDS011;56471;53.508;49.252;2023-04-25T07:01:45;6.40;;;3.05;;
69325;SDS011;56471;53.508;49.252;2023-04-25T07:04:10;7.63;;;2.85;;
69325;SDS011;56471;53.508;49.252;2023-04-25T07:06:36;4.85;;;2.80;;
69325;SDS011;56471;53.508;49.252;2023-04-25T07:09:10;6.07;;;3.17;;
69325;SDS011;56471;53.508;49.252;2023-04-25T07:11:37;8.63;;;3.28;;
69325;SDS011;56471;53.508;49.252;2023-04-25T07:14:02;7.55;;;3.10;;
69325;SDS011;56471;53.508;49.252;2023-04-25T07:16:28;8.75;;;3.28;;
69325;SDS011;56471;53.508;49.252;2023-04-25T07:18:54;7.20;;;3.00;;
69325;SDS011;56471;53.508;49.252;2023-04-25T07:21:20;8.77;;;3.10;;
69325;SDS011;56471;53.508;49.252;2023-04-25T07:23:46;10.77;;;3.30;;
69325;SDS011;56471;53.508;49.252;2023-04-25T07:26:11;8.52;;;3.35;;
69325;SDS011;56471;53.508;49.252;2023-04-25T07:28:37;8.45;;;3.28;;
69325;SDS011;56471;53.508;49.252;2023-04-25T07:31:03;8.18;;;3.50;;
69325;SDS011;56471;53.508;49.252;2023-04-25T07:33:28;6.55;;;3.40;;
69325;SDS011;56471;53.508;49.252;2023-04-25T07:35:54;11.57;;;3.78;;
69325;SDS011;56471;53.508;49.252;2023-04-25T07:38:21;10.85;;;3.47;;
69325;SDS011;56471;53.508;49.252;2023-04-25T07:40:47;7.63;;;3.30;;
69325;SDS011;56471;53.508;49.252;2023-04-25T07:43:13;5.95;;;2.90;;
69325;SDS011;56471;53.508;49.252;2023-04-25T07:45:45;5.80;;;2.88;;
69325;SDS011;56471;53.508;49.252;2023-04-25T07:48:11;7.53;;;3.00;;
69325;SDS011;56471;53.508;49.252;2023-04-25T07:50:41;9.73;;;3.20;;
69325;SDS011;56471;53.508;49.252;2023-04-25T07:53:07;8.75;;;3.17;;
69325;SDS011;56471;53.508;49.252;2023-04-25T07:55:32;8.18;;;3.30;;
69325;SDS011;56471;53.508;49.252;2023-04-25T07:57:58;7.50;;;3.28;;
69325;SDS011;56471;53.508;49.252;2023-04-25T08:00:23;5.43;;;3.20;;
69325;SDS011;56471;53.508;49.252;2023-04-25T08:02:49;6.72;;;3.10;;
69325;SDS011;56471;53.508;49.252;2023-04-25T08:05:16;6.55;;;3.00;;
69325;SDS011;56471;53.508;49.252;2023-04-25T08:07:42;12.55;;;3.30;;
69325;SDS011;56471;53.508;49.252;2023-04-25T08:10:08;5.88;;;2.90;;
69325;SDS011;56471;53.508;49.252;2023-04-25T08:12:34;7.38;;;3.00;;
69325;SDS011;56471;53.508;49.252;2023-04-25T08:15:00;6.82;;;2.90;;
69325;SDS011;56471;53.508;49.252;2023-04-25T08:17:26;5.35;;;2.80;;
69325;SDS011;56471;53.508;49.252;2023-04-25T08:19:52;7.57;;;2.80;;
69325;SDS011;56471;53.508;49.252;2023-04-25T08:22:18;7.25;;;2.83;;
69325;SDS011;56471;53.508;49.252;2023-04-25T08:24:43;9.60;;;2.90;;
69325;SDS011;56471;53.508;49.252;2023-04-25T08:27:09;4.30;;;2.85;;
69325;SDS011;56471;53.508;49.252;2023-04-25T08:29:35;10.25;;;2.83;;
69325;SDS011;56471;53.508;49.252;2023-04-25T08:32:00;6.18;;;2.75;;
69325;SDS011;56471;53.508;49.252;2023-04-25T08:34:26;4.50;;;2.67;;
69325;SDS011;56471;53.508;49.252;2023-04-25T08:36:52;6.65;;;2.60;;
69325;SDS011;56471;53.508;49.252;2023-04-25T08:39:18;6.53;;;2.58;;
69325;SDS011;56471;53.508;49.252;2023-04-25T08:41:44;4.63;;;2.63;;
69325;SDS011;56471;53.508;49.252;2023-04-25T08:44:10;8.95;;;2.78;;
69325;SDS011;56471;53.508;49.252;2023-04-25T08:46:40;11.30;;;2.72;;
69325;SDS011;56471;53.508;49.252;2023-04-25T08:49:06;11.75;;;3.33;;
69325;SDS011;56471;53.508;49.252;2023-04-25T08:51:34;15.73;;;2.95;;
69325;SDS011;56471;53.508;49.252;2023-04-25T08:54:11;5.30;;;2.60;;
69325;SDS011;56471;53.508;49.252;2023-04-25T08:56:43;7.32;;;2.35;;
69325;SDS011;56471;53.508;49.252;2023-04-25T08:59:10;5.55;;;2.78;;
69325;SDS011;56471;53.508;49.252;2023-04-25T09:01:39;6.30;;;2.35;;
69325;SDS011;56471;53.508;49.252;2023-04-25T09:04:05;5.70;;;2.45;;
69325;SDS011;56471;53.508;49.252;2023-04-25T09:06:31;6.00;;;2.75;;
69325;SDS011;56471;53.508;49.252;2023-04-25T09:09:02;5.63;;;2.50;;
69325;SDS011;56471;53.508;49.252;2023-04-25T09:11:32;6.75;;;2.50;;
69325;SDS011;56471;53.508;49.252;2023-04-25T09:14:19;8.82;;;3.03;;
69325;SDS011;56471;53.508;49.252;2023-04-25T09:19:22;6.55;;;2.45;;
69325;SDS011;56471;53.508;49.252;2023-04-25T09:21:57;7.70;;;2.67;;
69325;SDS011;56471;53.508;49.252;2023-04-25T09:26:59;3.80;;;2.30;;
69325;SDS011;56471;53.508;49.252;2023-04-25T09:29:31;6.22;;;2.95;;
69325;SDS011;56471;53.508;49.252;2023-04-25T09:32:11;10.85;;;2.70;;
69325;SDS011;56471;53.508;49.252;2023-04-25T09:34:41;6.50;;;2.60;;
69325;SDS011;56471;53.508;49.252;2023-04-25T09:37:09;10.02;;;2.75;;
69325;SDS011;56471;53.508;49.252;2023-04-25T09:39:38;11.85;;;3.08;;
69325;SDS011;56471;53.508;49.252;2023-04-25T09:42:05;12.25;;;3.33;;
69325;SDS011;56471;53.508;49.252;2023-04-25T09:44:30;24.98;;;3.35;;
69325;SDS011;56471;53.508;49.252;2023-04-25T09:46:56;21.75;;;3.42;;
69325;SDS011;56471;53.508;49.252;2023-04-25T09:49:24;18.60;;;3.20;;
69325;SDS011;56471;53.508;49.252;2023-04-25T09:51:55;11.45;;;3.20;;
69325;SDS011;56471;53.508;49.252;2023-04-25T09:54:25;18.52;;;3.55;;
69325;SDS011;56471;53.508;49.252;2023-04-25T09:57:03;12.18;;;2.83;;
69325;SDS011;56471;53.508;49.252;2023-04-25T09:59:37;6.72;;;2.75;;
69325;SDS011;56471;53.508;49.252;2023-04-25T10:02:05;12.07;;;3.20;;
69325;SDS011;56471;53.508;49.252;2023-04-25T10:04:33;12.05;;;2.90;;
69325;SDS011;56471;53.508;49.252;2023-04-25T10:07:00;12.73;;;3.03;;
69325;SDS011;56471;53.508;49.252;2023-04-25T10:09:28;6.90;;;2.90;;
69325;SDS011;56471;53.508;49.252;2023-04-25T10:11:58;8.23;;;2.97;;
69325;SDS011;56471;53.508;49.252;2023-04-25T10:14:25;6.70;;;3.15;;
69325;SDS011;56471;53.508;49.252;2023-04-25T10:16:51;8.45;;;2.90;;
69325;SDS011;56471;53.508;49.252;2023-04-25T10:19:22;8.10;;;2.75;;
69325;SDS011;56471;53.508;49.252;2023-04-25T10:22:23;8.80;;;2.72;;
69325;SDS011;56471;53.508;49.252;2023-04-25T10:24:46;6.18;;;2.78;;
69325;SDS011;56471;53.508;49.252;2023-04-25T10:27:12;10.15;;;2.92;;
69325;SDS011;56471;53.508;49.252;2023-04-25T10:29:38;4.95;;;2.88;;
69325;SDS011;56471;53.508;49.252;2023-04-25T10:32:07;6.18;;;2.88;;
69325;SDS011;56471;53.508;49.252;2023-04-25T10:34:43;5.40;;;2.63;;
69325;SDS011;56471;53.508;49.252;2023-04-25T10:37:12;8.88;;;3.03;;
69325;SDS011;56471;53.508;49.252;2023-04-25T10:39:39;7.90;;;2.90;;
69325;SDS011;56471;53.508;49.252;2023-04-25T10:42:06;6.80;;;2.60;;
69325;SDS011;56471;53.508;49.252;2023-04-25T10:44:33;5.70;;;2.60;;
69325;SDS011;56471;53.508;49.252;2023-04-25T10:47:00;5.90;;;2.45;;
69325;SDS011;56471;53.508;49.252;2023-04-25T10:49:31;6.57;;;2.60;;
69325;SDS011;56471;53.508;49.252;2023-04-25T10:54:48;6.30;;;2.50;;
69325;SDS011;56471;53.508;49.252;2023-04-25T10:57:27;6.13;;;2.30;;
69325;SDS011;56471;53.508;49.252;2023-04-25T11:00:10;6.93;;;2.55;;
69325;SDS011;56471;53.508;49.252;2023-04-25T11:02:42;6.63;;;2.60;;
69325;SDS011;56471;53.508;49.252;2023-04-25T11:05:10;8.30;;;2.55;;
69325;SDS011;56471;53.508;49.252;2023-04-25T11:07:47;8.25;;;2.47;;
69325;SDS011;56471;53.508;49.252;2023-04-25T11:10:16;8.07;;;2.30;;
69325;SDS011;56471;53.508;49.252;2023-04-25T11:12:42;8.82;;;2.30;;
69325;SDS011;56471;53.508;49.252;2023-04-25T11:15:09;4.50;;;2.40;;
69325;SDS011;56471;53.508;49.252;2023-04-25T11:17:35;5.38;;;2.40;;
69325;SDS011;56471;53.508;49.252;2023-04-25T11:20:01;6.65;;;2.63;;
69325;SDS011;56471;53.508;49.252;2023-04-25T11:22:34;11.65;;;2.42;;
69325;SDS011;56471;53.508;49.252;2023-04-25T11:25:07;6.78;;;2.50;;
69325;SDS011;56471;53.508;49.252;2023-04-25T11:27:33;6.80;;;2.55;;
69325;SDS011;56471;53.508;49.252;2023-04-25T11:30:20;3.80;;;2.42;;
69325;SDS011;56471;53.508;49.252;2023-04-25T11:32:46;4.80;;;2.20;;
69325;SDS011;56471;53.508;49.252;2023-04-25T11:35:12;4.90;;;2.40;;
69325;SDS011;56471;53.508;49.252;2023-04-25T11:37:41;8.50;;;2.28;;
69325;SDS011;56471;53.508;49.252;2023-04-25T11:40:08;4.80;;;2.30;;
69325;SDS011;56471;53.508;49.252;2023-04-25T11:42:53;9.57;;;2.53;;
69325;SDS011;56471;53.508;49.252;2023-04-25T11:45:19;5.20;;;2.25;;
69325;SDS011;56471;53.508;49.252;2023-04-25T11:47:46;8.90;;;2.35;;
69325;SDS011;56471;53.508;49.252;2023-04-25T11:50:12;5.78;;;2.40;;
69325;SDS011;56471;53.508;49.252;2023-04-25T11:55:09;6.93;;;2.10;;
69325;SDS011;56471;53.508;49.252;2023-04-25T11:57:38;5.78;;;2.30;;
69325;SDS011;56471;53.508;49.252;2023-04-25T12:00:12;6.05;;;2.55;;
69325;SDS011;56471;53.508;49.252;2023-04-25T12:02:40;5.43;;;2.30;;
69325;SDS011;56471;53.508;49.252;2023-04-25T12:05:10;8.43;;;2.45;;
69325;SDS011;56471;53.508;49.252;2023-04-25T12:07:37;4.95;;;2.53;;
69325;SDS011;56471;53.508;49.252;2023-04-25T12:10:13;5.85;;;2.40;;
69325;SDS011;56471;53.508;49.252;2023-04-25T12:12:44;5.82;;;2.30;;
69325;SDS011;56471;53.508;49.252;2023-04-25T12:17:40;5.50;;;2.75;;
69325;SDS011;56471;53.508;49.252;2023-04-25T12:20:13;6.97;;;2.58;;
69325;SDS011;56471;53.508;49.252;2023-04-25T12:22:41;7.68;;;2.80;;
69325;SDS011;56471;53.508;49.252;2023-04-25T12:25:57;5.95;;;2.53;;
69325;SDS011;56471;53.508;49.252;2023-04-25T12:28:11;7.03;;;2.85;;
69325;SDS011;56471;53.508;49.252;2023-04-25T12:30:59;7.00;;;3.05;;
69325;SDS011;56471;53.508;49.252;2023-04-25T12:33:28;9.73;;;2.88;;
69325;SDS011;56471;53.508;49.252;2023-04-25T12:35:58;6.13;;;2.90;;
69325;SDS011;56471;53.508;49.252;2023-04-25T12:38:28;7.93;;;3.10;;
69325;SDS011;56471;53.508;49.252;2023-04-25T12:41:00;5.45;;;2.85;;
69325;SDS011;56471;53.508;49.252;2023-04-25T12:43:26;5.18;;;3.17;;
69325;SDS011;56471;53.508;49.252;2023-04-25T12:45:52;4.95;;;3.05;;
69325;SDS011;56471;53.508;49.252;2023-04-25T12:48:19;6.18;;;3.13;;
69325;SDS011;56471;53.508;49.252;2023-04-25T12:50:46;6.40;;;3.10;;
69325;SDS011;56471;53.508;49.252;2023-04-25T12:53:16;7.30;;;3.15;;
69325;SDS011;56471;53.508;49.252;2023-04-25T12:55:42;7.38;;;3.00;;
69325;SDS011;56471;53.508;49.252;2023-04-25T12:58:08;7.05;;;3.13;;
69325;SDS011;56471;53.508;49.252;2023-04-25T13:00:33;7.90;;;3.05;;
69325;SDS011;56471;53.508;49.252;2023-04-25T13:02:59;8.57;;;3.20;;
69325;SDS011;56471;53.508;49.252;2023-04-25T13:05:25;7.47;;;3.38;;
69325;SDS011;56471;53.508;49.252;2023-04-25T13:07:51;8.27;;;3.20;;
69325;SDS011;56471;53.508;49.252;2023-04-25T13:10:16;6.75;;;3.30;;
69325;SDS011;56471;53.508;49.252;2023-04-25T13:12:43;8.85;;;3.10;;
69325;SDS011;56471;53.508;49.252;2023-04-25T13:15:09;6.47;;;3.20;;
69325;SDS011;56471;53.508;49.252;2023-04-25T13:17:36;5.93;;;3.15;;
69325;SDS011;56471;53.508;49.252;2023-04-25T13:20:03;3.80;;;3.00;;
69325;SDS011;56471;53.508;49.252;2023-04-25T13:22:34;12.18;;;3.47;;
69325;SDS011;56471;53.508;49.252;2023-04-25T13:25:04;8.38;;;3.33;;
69325;SDS011;56471;53.508;49.252;2023-04-25T13:27:30;6.35;;;3.10;;
69325;SDS011;56471;53.508;49.252;2023-04-25T13:29:58;9.23;;;3.10;;
69325;SDS011;56471;53.508;49.252;2023-04-25T13:32:25;8.68;;;3.40;;
69325;SDS011;56471;53.508;49.252;2023-04-25T13:34:51;6.35;;;3.38;;
69325;SDS011;56471;53.508;49.252;2023-04-25T13:37:17;10.20;;;3.42;;
69325;SDS011;56471;53.508;49.252;2023-04-25T13:39:43;6.30;;;3.45;;
69325;SDS011;56471;53.508;49.252;2023-04-25T13:42:09;8.10;;;3.30;;
69325;SDS011;56471;53.508;49.252;2023-04-25T13:44:34;11.40;;;3.20;;
69325;SDS011;56471;53.508;49.252;2023-04-25T13:47:00;9.10;;;3.30;;
69325;SDS011;56471;53.508;49.252;2023-04-25T13:49:26;6.85;;;3.00;;
69325;SDS011;56471;53.508;49.252;2023-04-25T13:51:51;7.05;;;3.40;;
69325;SDS011;56471;53.508;49.252;2023-04-25T13:54:17;5.47;;;3.25;;
69325;SDS011;56471;53.508;49.252;2023-04-25T13:56:43;5.95;;;3.40;;
69325;SDS011;56471;53.508;49.252;2023-04-25T13:59:09;8.38;;;3.20;;
69325;SDS011;56471;53.508;49.252;2023-04-25T14:01:35;5.15;;;3.58;;
69325;SDS011;56471;53.508;49.252;2023-04-25T14:04:01;14.40;;;3.42;;
69325;SDS011;56471;53.508;49.252;2023-04-25T14:06:28;11.45;;;3.70;;
69325;SDS011;56471;53.508;49.252;2023-04-25T14:08:55;40.15;;;22.02;;
69325;SDS011;56471;53.508;49.252;2023-04-25T14:11:21;691.75;;;559.10;;
69325;SDS011;56471;53.508;49.252;2023-04-25T14:13:47;421.50;;;322.85;;
69325;SDS011;56471;53.508;49.252;2023-04-25T14:16:14;247.65;;;169.57;;
69325;SDS011;56471;53.508;49.252;2023-04-25T14:18:41;136.23;;;87.97;;
69325;SDS011;56471;53.508;49.252;2023-04-25T14:21:06;76.57;;;44.65;;
69325;SDS011;56471;53.508;49.252;2023-04-25T14:23:33;36.60;;;20.42;;
69325;SDS011;56471;53.508;49.252;2023-04-25T14:25:58;121.68;;;84.38;;
69325;SDS011;56471;53.508;49.252;2023-04-25T14:28:24;95.15;;;61.08;;
69325;SDS011;56471;53.508;49.252;2023-04-25T14:30:49;40.13;;;27.23;;
69325;SDS011;56471;53.508;49.252;2023-04-25T14:33:15;33.50;;;17.75;;
69325;SDS011;56471;53.508;49.252;2023-04-25T14:35:41;28.17;;;15.70;;
69325;SDS011;56471;53.508;49.252;2023-04-25T14:38:07;25.48;;;13.38;;
69325;SDS011;56471;53.508;49.252;2023-04-25T14:40:33;25.20;;;12.55;;
69325;SDS011;56471;53.508;49.252;2023-04-25T14:42:58;22.15;;;10.60;;
69325;SDS011;56471;53.508;49.252;2023-04-25T14:45:24;14.90;;;9.00;;